Time;durP1;ratioP1;P1;durP2;ratioP2;P2;SDS_P1;SDS_P2;PMS_P1;PMS_P2;Temp;Humidity;BMP_temperature;BMP_pressure;BME280_temperature;BME280_humidity;BME280_pressure;Samples;Min_cycle;Max_cycle;Signal;HPM_P1;HPM_P2
2021/07/09 00:02:00;;;;;;;;;6.25;4.75;;;;;20.56;52.28;101927.88;5024707;28;45474;-69
2021/07/09 00:04:26;;;;;;;;;11.50;9.00;;;;;20.51;53.74;101923.75;5036602;28;46208;-73
2021/07/09 00:06:51;;;;;;;;;5.50;5.50;;;;;20.46;53.23;101926.63;5059868;28;45242;-66
2021/07/09 00:09:17;;;;;;;;;7.50;6.75;;;;;20.43;53.39;101925.94;5042003;28;45350;-69
2021/07/09 00:11:45;;;;;;;;;6.50;5.75;;;;;20.44;53.43;101932.94;5040046;28;45285;-72
2021/07/09 00:14:10;;;;;;;;;15.50;14.00;;;;;20.47;53.40;101930.13;5038433;28;45348;-75
2021/07/09 00:16:41;;;;;;;;;10.25;6.75;;;;;20.48;52.98;101929.19;5037725;28;45458;-74
2021/07/09 00:19:09;;;;;;;;;6.00;5.00;;;;;20.48;53.21;101924.78;5047183;28;45425;-73
2021/07/09 00:21:35;;;;;;;;;6.00;6.00;;;;;20.52;52.87;101928.97;5038482;28;45379;-71
2021/07/09 00:24:01;;;;;;;;;5.25;5.00;;;;;20.49;53.70;101931.75;5049738;28;45450;-72
2021/07/09 00:26:27;;;;;;;;;7.75;7.75;;;;;20.53;53.52;101933.31;5046223;28;45423;-78
2021/07/09 00:28:52;;;;;;;;;7.75;7.00;;;;;20.57;53.48;101936.66;5031192;28;46124;-74
2021/07/09 00:31:18;;;;;;;;;7.50;5.75;;;;;20.55;53.54;101927.94;5041156;28;59559;-70
2021/07/09 00:33:43;;;;;;;;;6.50;6.00;;;;;20.48;53.20;101923.91;5050871;28;45791;-70
2021/07/09 00:36:09;;;;;;;;;7.50;6.25;;;;;20.45;52.98;101919.66;5033825;28;45475;-74
2021/07/09 00:38:34;;;;;;;;;13.00;8.00;;;;;20.45;53.54;101918.78;5022325;28;46352;-78
2021/07/09 00:41:00;;;;;;;;;6.50;6.50;;;;;20.46;53.52;101917.88;5030529;28;63925;-79
2021/07/09 00:43:25;;;;;;;;;7.00;6.00;;;;;20.38;54.38;101918.19;5047100;28;45568;-76
2021/07/09 00:45:51;;;;;;;;;7.25;6.25;;;;;20.34;53.84;101920.13;5034730;28;59984;-76
2021/07/09 00:48:16;;;;;;;;;8.50;8.00;;;;;20.36;53.83;101930.63;5020660;28;70351;-75
2021/07/09 00:50:41;;;;;;;;;7.75;5.75;;;;;20.39;53.97;101926.97;5018841;28;55843;-73
2021/07/09 00:53:10;;;;;;;;;13.75;8.75;;;;;20.37;53.70;101932.31;5038408;28;45601;-75
2021/07/09 00:55:35;;;;;;;;;5.00;3.25;;;;;20.34;53.67;101929.84;5019064;28;45471;-73
2021/07/09 00:58:01;;;;;;;;;5.50;5.50;;;;;20.29;54.18;101935.34;5018287;28;45450;-73
2021/07/09 01:00:27;;;;;;;;;6.50;6.00;;;;;20.23;54.73;101946.22;5048988;28;45735;-73
2021/07/09 01:02:52;;;;;;;;;7.00;6.25;;;;;20.12;55.87;101934.47;5041214;28;45296;-74
2021/07/09 01:05:18;;;;;;;;;12.75;10.00;;;;;20.03;55.01;101938.41;5055179;28;61920;-76
2021/07/09 01:07:44;;;;;;;;;8.00;7.25;;;;;19.98;56.39;101945.66;5048956;28;46093;-76
2021/07/09 01:10:11;;;;;;;;;5.25;5.25;;;;;19.89;55.45;101944.34;5047727;28;45272;-75
2021/07/09 01:12:37;;;;;;;;;7.00;6.75;;;;;19.86;55.68;101946.28;5041366;28;45467;-76
2021/07/09 01:15:09;;;;;;;;;6.50;6.00;;;;;19.90;56.06;101947.81;5038163;28;45278;-75
2021/07/09 01:17:37;;;;;;;;;9.75;7.00;;;;;19.88;55.80;101947.91;5056273;28;45356;-75
2021/07/09 01:20:07;;;;;;;;;9.25;7.75;;;;;19.92;55.69;101943.34;5040718;28;63769;-76
2021/07/09 01:22:33;;;;;;;;;8.25;7.25;;;;;19.98;55.20;101945.66;5041249;28;45463;-77
2021/07/09 01:24:58;;;;;;;;;11.75;7.50;;;;;20.00;55.31;101942.03;5037994;28;45542;-76
2021/07/09 01:27:23;;;;;;;;;6.75;6.75;;;;;19.98;55.23;101935.97;5036656;28;70021;-76
2021/07/09 01:29:49;;;;;;;;;6.50;6.25;;;;;19.94;56.30;101942.31;5017205;28;59578;-75
2021/07/09 01:32:14;;;;;;;;;7.50;7.50;;;;;19.87;55.65;101946.19;5036663;28;58374;-75
2021/07/09 01:34:40;;;;;;;;;9.50;6.00;;;;;19.88;55.72;101949.69;5049974;28;63434;-75
2021/07/09 01:37:24;;;;;;;;;7.00;6.25;;;;;19.90;55.88;101950.47;5040812;28;47269;-76
2021/07/09 01:39:49;;;;;;;;;14.50;10.50;;;;;19.91;55.59;101945.13;5054670;28;52368;-77
2021/07/09 01:42:15;;;;;;;;;7.75;5.50;;;;;19.89;55.78;101949.63;5032022;28;49976;-77
2021/07/09 01:44:42;;;;;;;;;12.25;8.25;;;;;19.91;55.54;101944.25;5042523;28;54281;-74
2021/07/09 01:47:07;;;;;;;;;10.00;6.75;;;;;19.95;55.45;101938.75;5040657;28;45365;-74
2021/07/09 01:49:51;;;;;;;;;6.50;6.50;;;;;19.96;55.44;101942.25;5037679;28;45269;-74
2021/07/09 01:52:17;;;;;;;;;8.25;7.25;;;;;19.94;55.71;101944.13;5002342;28;45339;-74
2021/07/09 01:54:42;;;;;;;;;7.50;6.75;;;;;19.88;55.48;101939.13;5058574;28;45210;-75
2021/07/09 01:57:07;;;;;;;;;6.50;6.00;;;;;19.86;55.64;101946.28;5041399;28;61838;-69
2021/07/09 01:59:33;;;;;;;;;5.00;5.00;;;;;19.84;55.70;101953.41;5040745;28;45266;-69
2021/07/09 02:01:58;;;;;;;;;12.00;9.50;;;;;19.82;55.49;101949.94;5050969;28;59650;-69
2021/07/09 02:04:24;;;;;;;;;9.25;7.00;;;;;19.82;55.93;101934.13;5041388;28;66955;-69
2021/07/09 02:06:49;;;;;;;;;8.50;6.50;;;;;19.82;56.63;101932.34;5061735;28;62635;-69
2021/07/09 02:09:14;;;;;;;;;8.00;7.00;;;;;19.80;56.20;101941.25;5061975;28;45524;-76
2021/07/09 02:11:40;;;;;;;;;9.75;8.00;;;;;19.77;56.42;101931.72;5039990;28;60385;-76
2021/07/09 02:14:05;;;;;;;;;8.00;6.75;;;;;19.78;56.27;101937.84;5004711;28;45614;-79
2021/07/09 02:16:30;;;;;;;;;11.00;9.75;;;;;19.80;56.05;101933.34;5026720;28;53521;-71
2021/07/09 02:18:56;;;;;;;;;13.50;9.75;;;;;19.81;56.03;101927.13;5042754;28;69852;-71
2021/07/09 02:21:21;;;;;;;;;12.25;8.75;;;;;19.82;56.34;101934.13;5060301;28;59120;-72
2021/07/09 02:23:47;;;;;;;;;8.25;7.50;;;;;19.77;56.49;101930.84;5060468;28;45356;-73
2021/07/09 02:26:12;;;;;;;;;9.00;6.75;;;;;19.69;56.60;101925.94;5023850;28;46939;-70
2021/07/09 02:28:38;;;;;;;;;8.25;7.00;;;;;19.67;56.54;101933.09;5022887;28;57507;-73
2021/07/09 02:31:03;;;;;;;;;9.50;7.50;;;;;19.65;56.67;101929.66;5040672;28;45531;-73
2021/07/09 02:33:28;;;;;;;;;7.75;7.00;;;;;19.60;56.36;101931.63;5037622;28;66724;-73
2021/07/09 02:35:54;;;;;;;;;7.50;7.50;;;;;19.54;57.15;101924.88;5043714;28;52711;-73
2021/07/09 02:38:19;;;;;;;;;12.25;9.75;;;;;19.48;57.00;101925.13;5061407;28;45185;-76
2021/07/09 02:40:45;;;;;;;;;8.25;7.25;;;;;19.47;57.28;101927.84;5053841;28;58292;-72
2021/07/09 02:43:10;;;;;;;;;9.50;8.00;;;;;19.47;57.69;101928.69;5042972;28;45344;-73
2021/07/09 02:45:35;;;;;;;;;8.25;6.25;;;;;19.39;57.72;101926.38;5058284;28;66283;-70
2021/07/09 02:48:01;;;;;;;;;8.50;8.00;;;;;19.31;58.74;101928.53;5057602;28;61375;-75
2021/07/09 02:50:26;;;;;;;;;8.75;5.75;;;;;19.25;58.64;101923.53;5040028;28;45771;-71
2021/07/09 02:52:52;;;;;;;;;12.75;8.25;;;;;19.25;58.15;101917.41;5038685;28;45449;-75
2021/07/09 02:55:18;;;;;;;;;7.75;7.25;;;;;19.26;58.20;101911.22;5042234;28;45571;-75
2021/07/09 02:57:43;;;;;;;;;10.25;9.75;;;;;19.22;58.72;101917.53;5038737;28;45838;-70
2021/07/09 03:00:14;;;;;;;;;10.75;9.00;;;;;19.21;58.83;101910.53;5034599;28;45175;-74
2021/07/09 03:02:39;;;;;;;;;10.50;7.75;;;;;19.21;58.44;101915.81;5047153;28;45366;-75
2021/07/09 03:05:05;;;;;;;;;9.00;7.75;;;;;19.25;58.34;101914.78;5026660;28;45980;-72
2021/07/09 03:07:33;;;;;;;;;9.75;6.75;;;;;19.28;58.65;101914.63;5051256;28;45559;-74
2021/07/09 03:09:59;;;;;;;;;12.25;8.00;;;;;19.27;58.02;101913.78;5039406;28;45286;-69
2021/07/09 03:12:24;;;;;;;;;8.75;8.25;;;;;19.28;58.38;101909.38;5055139;28;49753;-68
2021/07/09 03:14:49;;;;;;;;;9.50;8.50;;;;;19.23;58.60;101916.63;5044711;28;45549;-69
2021/07/09 03:17:15;;;;;;;;;10.00;8.25;;;;;19.22;58.22;101912.25;5058294;28;58550;-69
2021/07/09 03:19:40;;;;;;;;;9.75;9.50;;;;;19.19;59.22;101910.63;5060615;28;58380;-69
2021/07/09 03:22:06;;;;;;;;;9.75;7.50;;;;;19.15;59.05;101914.31;5054242;28;45268;-71
2021/07/09 03:24:31;;;;;;;;;10.00;9.00;;;;;19.09;58.96;101910.19;5038692;28;72054;-70
2021/07/09 03:26:57;;;;;;;;;16.50;10.75;;;;;19.09;59.26;101910.19;5018272;28;45403;-66
2021/07/09 03:29:22;;;;;;;;;13.25;11.00;;;;;19.11;58.94;101907.47;5061128;28;45443;-67
2021/07/09 03:31:47;;;;;;;;;10.25;8.75;;;;;19.12;58.73;101907.41;5039919;28;45437;-67
2021/07/09 03:34:13;;;;;;;;;10.25;10.25;;;;;19.13;58.86;101908.25;5022089;28;62132;-68
2021/07/09 03:36:43;;;;;;;;;11.25;11.25;;;;;19.08;58.95;101897.94;5003783;28;45274;-70
2021/07/09 03:39:09;;;;;;;;;10.00;9.00;;;;;19.05;59.01;101894.59;5056096;28;45396;-69
2021/07/09 03:41:35;;;;;;;;;13.50;10.50;;;;;18.96;59.45;101897.59;5023083;28;45499;-69
2021/07/09 03:44:00;;;;;;;;;10.00;9.00;;;;;18.90;60.92;101909.28;5058367;28;63069;-70
2021/07/09 03:46:26;;;;;;;;;12.00;10.00;;;;;18.81;61.21;101901.75;5041696;28;57771;-70
2021/07/09 03:48:51;;;;;;;;;11.25;11.00;;;;;18.74;59.94;101897.69;5030522;28;52170;-67
2021/07/09 03:51:19;;;;;;;;;9.50;9.00;;;;;18.72;60.22;101899.53;5060019;28;50975;-68
2021/07/09 03:53:45;;;;;;;;;12.50;10.00;;;;;18.72;60.20;101902.16;5031733;28;45407;-67
2021/07/09 03:56:10;;;;;;;;;11.50;9.50;;;;;18.74;60.01;101905.59;5025735;28;45270;-72
2021/07/09 03:58:35;;;;;;;;;9.75;9.75;;;;;18.75;61.07;101905.53;5022111;28;52028;-75
2021/07/09 04:01:01;;;;;;;;;11.25;10.25;;;;;18.68;60.55;101896.19;5050843;28;58849;-75
2021/07/09 04:03:27;;;;;;;;;10.75;10.25;;;;;18.64;60.98;101899.03;5041663;28;45626;-70
2021/07/09 04:05:52;;;;;;;;;11.00;10.25;;;;;18.60;61.57;101908.78;5038958;28;45539;-71
2021/07/09 04:08:17;;;;;;;;;11.50;9.75;;;;;18.60;60.79;101913.19;5058489;28;62120;-69
2021/07/09 04:10:43;;;;;;;;;12.25;10.25;;;;;18.61;60.72;101907.00;5039280;28;60460;-73
2021/07/09 04:13:08;;;;;;;;;10.75;8.75;;;;;18.63;60.76;101903.44;5059498;28;69497;-72
2021/07/09 04:15:34;;;;;;;;;13.50;11.75;;;;;18.65;60.82;101906.84;5039048;28;45443;-72
2021/07/09 04:17:59;;;;;;;;;13.50;10.00;;;;;18.62;61.04;101906.06;5038411;28;49869;-69
2021/07/09 04:20:24;;;;;;;;;15.25;14.75;;;;;18.62;60.57;101903.44;5035979;28;45356;-70
2021/07/09 04:22:50;;;;;;;;;11.75;10.75;;;;;18.61;61.22;101901.72;5042106;28;48420;-71
2021/07/09 04:25:15;;;;;;;;;13.50;10.75;;;;;18.64;60.88;101909.56;5059163;28;63434;-70
2021/07/09 04:27:41;;;;;;;;;12.00;10.50;;;;;18.68;61.53;101908.50;5038852;28;45343;-73
2021/07/09 04:30:08;;;;;;;;;10.75;9.50;;;;;18.68;60.98;101905.88;5037748;28;45463;-71
2021/07/09 04:32:33;;;;;;;;;12.00;11.25;;;;;18.71;60.91;101906.56;5058096;28;45602;-74
2021/07/09 04:34:59;;;;;;;;;13.25;11.75;;;;;18.76;60.81;101903.75;5006896;28;68930;-75
2021/07/09 04:37:24;;;;;;;;;12.75;11.75;;;;;18.82;60.85;101909.63;5041835;28;50596;-73
2021/07/09 04:39:49;;;;;;;;;0.00;0.00;;;;;18.83;61.39;101906.06;5033703;28;45290;-73
2021/07/09 04:42:15;;;;;;;;;13.00;9.50;;;;;18.83;60.92;101918.38;5051283;28;63461;-76
2021/07/09 04:44:40;;;;;;;;;15.75;13.25;;;;;18.82;60.89;101908.72;5052569;28;51478;-72
2021/07/09 04:47:06;;;;;;;;;13.50;10.25;;;;;18.90;61.00;101909.28;5058807;28;46769;-78
2021/07/09 04:49:31;;;;;;;;;16.00;12.75;;;;;19.00;60.43;101912.34;5059253;28;45443;-75
2021/07/09 04:51:57;;;;;;;;;14.75;12.25;;;;;19.04;60.83;101914.81;5038138;28;46572;-77
2021/07/09 04:54:22;;;;;;;;;15.75;12.75;;;;;19.02;60.58;101919.28;5052882;28;63036;-76
2021/07/09 04:56:48;;;;;;;;;15.25;13.00;;;;;18.99;60.53;101916.75;5058460;28;45335;-69
2021/07/09 04:59:13;;;;;;;;;13.75;12.25;;;;;18.97;61.32;101920.41;5057827;28;45465;-73
2021/07/09 05:01:38;;;;;;;;;15.25;11.75;;;;;18.94;60.85;101916.13;5056861;28;62065;-70
2021/07/09 05:04:07;;;;;;;;;15.75;14.25;;;;;19.03;60.88;101923.63;5038098;28;45284;-71
2021/07/09 05:06:33;;;;;;;;;18.50;14.75;;;;;19.10;60.44;101921.56;5016462;28;45387;-69
2021/07/09 05:08:59;;;;;;;;;13.75;11.50;;;;;19.14;60.98;101916.09;5021484;28;45629;-69
2021/07/09 05:11:24;;;;;;;;;15.75;15.00;;;;;19.12;60.95;101917.94;5056510;28;53192;-69
2021/07/09 05:13:50;;;;;;;;;12.50;11.50;;;;;19.16;60.85;101923.94;5060997;28;69041;-70
2021/07/09 05:16:15;;;;;;;;;15.50;14.00;;;;;19.30;60.47;101928.59;5062112;28;45343;-69
2021/07/09 05:18:41;;;;;;;;;19.75;14.50;;;;;19.36;60.19;101931.81;5062470;28;45217;-70
2021/07/09 05:21:06;;;;;;;;;13.00;12.50;;;;;19.39;60.32;101933.44;5061916;28;62483;-73
2021/07/09 05:23:31;;;;;;;;;14.75;13.75;;;;;19.44;60.04;101937.59;5062081;28;57351;-73
2021/07/09 05:25:57;;;;;;;;;15.25;13.00;;;;;19.49;60.11;101939.16;5060689;28;56359;-72
2021/07/09 05:28:22;;;;;;;;;19.75;14.50;;;;;19.56;59.78;101930.06;5062603;28;45256;-71
2021/07/09 05:30:48;;;;;;;;;16.00;13.75;;;;;19.57;60.17;101932.63;5062115;28;45260;-71
2021/07/09 05:33:16;;;;;;;;;13.50;11.25;;;;;19.56;60.15;101938.84;5043447;28;45284;-71
2021/07/09 05:35:42;;;;;;;;;13.75;12.00;;;;;19.54;59.89;101929.28;5040975;28;45474;-75
2021/07/09 05:38:08;;;;;;;;;14.50;13.00;;;;;19.58;60.25;101938.75;5057303;28;45362;-73
2021/07/09 05:40:33;;;;;;;;;12.25;11.00;;;;;19.65;59.55;101940.22;5033701;28;54001;-72
2021/07/09 05:43:01;;;;;;;;;18.50;14.00;;;;;19.69;59.74;101944.41;5018887;28;45471;-72
2021/07/09 05:45:26;;;;;;;;;11.00;11.00;;;;;19.72;59.98;101942.47;5062333;28;45229;-71
2021/07/09 05:47:51;;;;;;;;;17.25;14.00;;;;;19.79;59.49;101943.03;5042458;28;45206;-71
2021/07/09 05:50:17;;;;;;;;;17.50;13.75;;;;;19.81;59.21;101950.88;5026380;28;66153;-75
2021/07/09 05:52:42;;;;;;;;;14.00;12.25;;;;;19.88;59.00;101949.69;5042279;28;54053;-73
2021/07/09 05:55:08;;;;;;;;;16.50;12.25;;;;;19.97;59.18;101949.25;5040845;28;45291;-75
2021/07/09 05:57:33;;;;;;;;;12.75;11.50;;;;;19.98;59.20;101946.53;5054808;28;45486;-73
2021/07/09 05:59:59;;;;;;;;;15.00;13.75;;;;;20.04;59.07;101948.91;5023698;28;58487;-73
2021/07/09 06:02:24;;;;;;;;;15.25;13.25;;;;;20.13;58.55;101952.88;5036263;28;45382;-75
2021/07/09 06:04:49;;;;;;;;;16.25;12.50;;;;;20.16;58.77;101952.72;5056844;28;57595;-73
2021/07/09 06:07:15;;;;;;;;;20.00;17.25;;;;;20.24;58.26;101941.81;5040422;28;45265;-77
2021/07/09 06:09:40;;;;;;;;;21.25;16.00;;;;;20.34;57.97;101954.47;5060940;28;46073;-76
2021/07/09 06:12:06;;;;;;;;;20.50;16.00;;;;;20.41;57.77;101943.63;5058139;28;63519;-75
2021/07/09 06:14:31;;;;;;;;;20.75;17.00;;;;;20.43;58.06;101947.06;5061693;28;45293;-74
2021/07/09 06:16:57;;;;;;;;;20.50;14.75;;;;;20.46;57.57;101953.03;5042527;28;45416;-73
2021/07/09 06:19:22;;;;;;;;;16.50;13.00;;;;;20.47;57.34;101943.34;5055062;28;45496;-72
2021/07/09 06:21:48;;;;;;;;;18.75;12.75;;;;;20.54;57.32;101955.28;5053894;28;52553;-75
2021/07/09 06:24:17;;;;;;;;;14.50;11.50;;;;;20.59;57.49;101961.19;5022748;28;45705;-71
2021/07/09 06:26:42;;;;;;;;;14.00;12.00;;;;;20.63;57.39;101960.13;5034289;28;45524;-70
2021/07/09 06:29:07;;;;;;;;;12.75;10.00;;;;;20.66;56.88;101959.97;5060040;28;63927;-72
2021/07/09 06:31:33;;;;;;;;;14.25;12.75;;;;;20.67;56.45;101956.41;5043094;28;45310;-75
2021/07/09 06:33:58;;;;;;;;;14.50;12.25;;;;;20.69;56.65;101956.31;5043860;28;52199;-76
2021/07/09 06:36:24;;;;;;;;;15.75;10.75;;;;;20.69;56.52;101965.09;5040163;28;45261;-75
2021/07/09 06:38:49;;;;;;;;;17.75;12.25;;;;;20.69;56.82;101962.47;5058505;28;56853;-74
2021/07/09 06:41:15;;;;;;;;;15.75;13.00;;;;;20.72;56.14;101962.31;5025473;28;57154;-74
2021/07/09 06:43:40;;;;;;;;;13.25;11.50;;;;;20.84;56.45;101969.63;5059429;28;45297;-74
2021/07/09 06:46:05;;;;;;;;;13.25;9.75;;;;;20.90;55.43;101960.50;5060958;28;45532;-75
2021/07/09 06:48:31;;;;;;;;;11.75;7.75;;;;;20.96;54.94;101968.13;5042022;28;66353;-74
2021/07/09 06:50:56;;;;;;;;;12.75;7.75;;;;;20.95;54.63;101967.25;5059266;28;64863;-75
2021/07/09 06:53:21;;;;;;;;;14.25;8.00;;;;;20.98;54.50;101966.25;5060755;28;53711;-72
2021/07/09 06:55:47;;;;;;;;;12.00;11.00;;;;;21.06;54.75;101968.50;5060873;28;45358;-74
2021/07/09 06:58:12;;;;;;;;;12.25;9.50;;;;;21.16;54.47;101967.09;5021263;28;66823;-73
2021/07/09 07:00:38;;;;;;;;;12.00;9.50;;;;;21.23;54.49;101965.84;5034905;28;57272;-69
2021/07/09 07:03:04;;;;;;;;;9.75;6.25;;;;;21.24;54.04;101971.09;5042335;28;45531;-73
2021/07/09 07:05:30;;;;;;;;;8.00;6.75;;;;;21.27;53.37;101970.06;5004503;28;45834;-69
2021/07/09 07:07:55;;;;;;;;;10.75;7.75;;;;;21.36;53.20;101974.84;5054337;28;45432;-67
2021/07/09 07:10:20;;;;;;;;;9.25;8.00;;;;;21.42;52.82;101977.16;5039290;28;66146;-67
2021/07/09 07:12:47;;;;;;;;;9.25;9.00;;;;;21.49;52.91;101980.38;5025772;28;45514;-69
2021/07/09 07:15:12;;;;;;;;;17.75;12.75;;;;;21.56;52.53;101979.94;5023008;28;45752;-64
2021/07/09 07:17:38;;;;;;;;;25.50;17.00;;;;;21.60;52.73;101979.78;5037372;28;46169;-67
2021/07/09 07:20:04;;;;;;;;;29.75;22.00;;;;;21.63;52.51;101979.63;5047337;28;57945;-75
2021/07/09 07:22:29;;;;;;;;;15.75;12.75;;;;;21.61;52.61;101986.75;5060676;28;45227;-76
2021/07/09 07:24:55;;;;;;;;;14.00;9.25;;;;;21.63;52.66;101979.63;5038796;28;65216;-74
2021/07/09 07:27:21;;;;;;;;;13.50;11.00;;;;;21.72;52.19;101981.75;5019828;28;66613;-74
2021/07/09 07:29:47;;;;;;;;;20.00;13.75;;;;;21.80;52.12;101977.75;5033017;28;45320;-78
2021/07/09 07:32:13;;;;;;;;;11.50;8.00;;;;;21.83;51.89;101977.59;5059103;28;45391;-73
2021/07/09 07:34:39;;;;;;;;;17.25;14.00;;;;;21.95;52.20;101981.34;5060429;28;45403;-65
2021/07/09 07:37:04;;;;;;;;;12.75;11.00;;;;;22.05;52.05;101984.38;5037428;28;45360;-61
2021/07/09 07:39:30;;;;;;;;;9.50;8.50;;;;;22.12;51.96;101981.31;5045526;28;46256;-61
2021/07/09 07:41:55;;;;;;;;;12.75;10.00;;;;;22.18;51.32;101977.44;5059924;28;50505;-62
2021/07/09 07:44:21;;;;;;;;;14.00;11.00;;;;;22.20;51.42;101980.00;5021825;28;61601;-63
2021/07/09 07:46:49;;;;;;;;;9.50;9.25;;;;;22.24;51.27;101973.63;5058584;28;45557;-62
2021/07/09 07:49:15;;;;;;;;;9.00;7.75;;;;;22.28;51.30;101965.41;5042423;28;45419;-65
2021/07/09 07:51:40;;;;;;;;;10.25;8.75;;;;;22.34;50.76;101974.78;5059000;28;45366;-61
2021/07/09 07:54:05;;;;;;;;;31.75;25.00;;;;;22.40;50.55;101980.56;5058294;28;67192;-62
2021/07/09 07:56:31;;;;;;;;;13.25;10.75;;;;;22.44;50.35;101974.19;5059595;28;62479;-65
2021/07/09 07:58:56;;;;;;;;;9.25;9.25;;;;;22.47;50.07;101978.44;5025201;28;63286;-64
2021/07/09 08:01:22;;;;;;;;;9.50;8.00;;;;;22.47;49.86;101978.44;5053194;28;57798;-64
2021/07/09 08:03:48;;;;;;;;;10.50;8.50;;;;;22.48;49.99;101977.50;5051754;28;45340;-63
2021/07/09 08:06:13;;;;;;;;;18.00;12.75;;;;;22.60;49.99;101979.44;5039209;28;46303;-65
2021/07/09 08:08:39;;;;;;;;;14.50;12.50;;;;;22.79;49.70;101973.91;5059362;28;45322;-66
2021/07/09 08:11:04;;;;;;;;;12.00;10.00;;;;;23.00;49.51;101975.31;5056612;28;45331;-66
2021/07/09 08:13:30;;;;;;;;;16.00;11.00;;;;;23.09;48.80;101971.25;5038656;28;45471;-68
2021/07/09 08:15:55;;;;;;;;;11.75;9.75;;;;;23.23;48.89;101973.94;5069663;28;46132;-65
2021/07/09 08:18:21;;;;;;;;;14.25;10.75;;;;;23.40;48.45;101970.22;5058665;28;60367;-74
2021/07/09 08:20:46;;;;;;;;;13.00;11.00;;;;;23.58;48.45;101969.13;5059675;28;45519;-70
2021/07/09 08:23:11;;;;;;;;;14.25;10.50;;;;;23.70;47.98;101961.34;5059404;28;46222;-71
2021/07/09 08:25:37;;;;;;;;;11.50;10.50;;;;;23.76;46.65;101963.59;5058563;28;66411;-69
2021/07/09 08:28:02;;;;;;;;;18.50;11.00;;;;;23.51;46.77;101957.16;5038227;28;45252;-70
2021/07/09 08:30:28;;;;;;;;;13.50;10.75;;;;;23.30;47.13;101967.31;5056197;28;45436;-72
2021/07/09 08:32:53;;;;;;;;;12.75;10.50;;;;;23.32;47.20;101954.78;5037840;28;45262;-68
2021/07/09 08:35:19;;;;;;;;;12.50;8.25;;;;;23.37;47.36;101944.75;5042068;28;46172;-64
2021/07/09 08:37:44;;;;;;;;;11.75;10.75;;;;;23.40;46.50;101953.47;5056453;28;45237;-65
2021/07/09 08:40:10;;;;;;;;;11.50;10.50;;;;;23.30;46.86;101956.69;5052303;28;63492;-67
2021/07/09 08:42:38;;;;;;;;;9.00;8.00;;;;;23.21;47.20;101946.63;5059249;28;45285;-66
2021/07/09 08:45:05;;;;;;;;;13.00;11.00;;;;;23.16;47.15;101950.53;5057291;28;63118;-66
2021/07/09 08:47:31;;;;;;;;;14.00;10.25;;;;;23.20;46.93;101941.41;5037105;28;45540;-72
2021/07/09 08:49:58;;;;;;;;;11.25;11.00;;;;;23.14;47.33;101944.47;5036312;28;45338;-69
2021/07/09 08:52:23;;;;;;;;;9.25;8.25;;;;;23.13;47.28;101948.06;5029834;28;45456;-68
2021/07/09 08:54:48;;;;;;;;;10.75;9.25;;;;;23.16;47.31;101945.22;5058683;28;58231;-70
2021/07/09 08:57:17;;;;;;;;;15.00;11.00;;;;;23.21;47.26;101943.13;5059260;28;45312;-74
2021/07/09 08:59:42;;;;;;;;;15.50;13.50;;;;;23.24;46.69;101943.81;5057338;28;61951;-66
2021/07/09 09:02:08;;;;;;;;;16.00;14.50;;;;;23.13;46.52;101946.25;5047748;28;51105;-69
2021/07/09 09:04:34;;;;;;;;;25.25;22.50;;;;;23.02;46.83;101944.25;5039545;28;51949;-67
2021/07/09 09:07:07;;;;;;;;;12.75;10.00;;;;;22.98;47.15;101937.44;5014739;28;45495;-65
2021/07/09 09:09:34;;;;;;;;;10.75;7.50;;;;;23.02;46.53;101941.59;5058002;28;45431;-66
2021/07/09 09:12:00;;;;;;;;;12.00;12.00;;;;;23.05;46.59;101940.59;5057246;28;45438;-63
2021/07/09 09:14:26;;;;;;;;;9.50;8.25;;;;;23.04;46.45;101936.22;5058961;28;46596;-66
2021/07/09 09:16:51;;;;;;;;;11.00;8.25;;;;;23.13;46.52;101945.41;5037288;28;47386;-65
2021/07/09 09:19:20;;;;;;;;;10.00;8.00;;;;;23.25;46.51;101942.88;5013483;28;59831;-64
2021/07/09 09:21:46;;;;;;;;;8.00;7.50;;;;;23.27;46.26;101938.31;5034643;28;45518;-68
2021/07/09 09:24:11;;;;;;;;;15.75;9.25;;;;;23.32;46.12;101941.53;5048086;28;45450;-69
2021/07/09 09:26:42;;;;;;;;;7.50;5.50;;;;;23.44;46.33;101949.69;5016961;28;65276;-69
2021/07/09 09:29:15;;;;;;;;;9.25;7.25;;;;;23.62;46.28;101941.44;5049305;28;45316;-66
2021/07/09 09:31:41;;;;;;;;;5.50;4.25;;;;;23.88;45.60;101942.44;5035215;28;45486;-69
2021/07/09 09:34:06;;;;;;;;;8.75;8.75;;;;;24.04;44.85;101942.31;5038085;28;45493;-63
2021/07/09 09:36:32;;;;;;;;;15.25;10.75;;;;;24.02;44.55;101941.53;5034047;28;45269;-71
2021/07/09 09:39:02;;;;;;;;;11.50;9.50;;;;;24.06;45.03;101950.19;5048885;28;53256;-71
2021/07/09 09:41:27;;;;;;;;;12.50;8.75;;;;;24.32;45.26;101948.50;5020432;28;45478;-65
2021/07/09 09:43:53;;;;;;;;;11.00;10.00;;;;;24.53;44.46;101942.59;5044875;28;45415;-66
2021/07/09 09:46:28;;;;;;;;;7.00;7.00;;;;;24.66;43.77;101933.81;5036704;28;61047;-67
2021/07/09 09:48:53;;;;;;;;;10.50;7.50;;;;;24.75;43.33;101938.50;5038507;28;45503;-66
2021/07/09 09:51:30;;;;;;;;;11.25;8.25;;;;;24.78;43.50;101939.13;5037008;28;61017;-64
2021/07/09 09:54:06;;;;;;;;;11.25;8.50;;;;;24.98;42.14;101934.25;5036227;28;47987;-65
2021/07/09 09:56:46;;;;;;;;;18.25;14.50;;;;;24.98;42.27;101934.25;5043930;28;45328;-65
2021/07/09 09:59:22;;;;;;;;;13.00;11.25;;;;;24.91;43.11;101941.81;5049536;28;45359;-64
2021/07/09 10:01:54;;;;;;;;;9.25;8.75;;;;;24.86;42.47;101936.81;5051777;28;45536;-64
2021/07/09 10:04:20;;;;;;;;;7.50;7.50;;;;;24.91;42.59;101930.31;5052970;28;45621;-65
2021/07/09 10:06:46;;;;;;;;;10.75;8.75;;;;;25.01;42.18;101937.56;5049124;28;45682;-65
2021/07/09 10:09:12;;;;;;;;;8.75;7.00;;;;;25.04;41.95;101928.56;5039656;28;45295;-65
2021/07/09 10:11:39;;;;;;;;;12.50;10.00;;;;;24.97;42.32;101922.75;5033685;28;45990;-66
2021/07/09 10:14:06;;;;;;;;;7.00;6.50;;;;;24.79;42.80;101924.03;5060479;28;46500;-66
2021/07/09 10:16:31;;;;;;;;;9.25;9.00;;;;;24.64;43.07;101922.44;5031677;28;45467;-65
2021/07/09 10:18:56;;;;;;;;;6.75;6.50;;;;;24.64;43.35;101925.94;5014676;28;54418;-65
2021/07/09 10:21:22;;;;;;;;;9.25;9.25;;;;;24.73;42.80;101925.31;5048948;28;47192;-66
2021/07/09 10:23:47;;;;;;;;;10.50;8.50;;;;;24.71;43.40;101921.91;5053340;28;59162;-66
2021/07/09 10:26:17;;;;;;;;;10.50;9.00;;;;;24.55;43.65;101918.56;5019300;28;45460;-66
2021/07/09 10:28:42;;;;;;;;;11.00;9.00;;;;;24.49;43.66;101924.31;5041833;28;45442;-65
2021/07/09 10:31:26;;;;;;;;;10.25;6.75;;;;;24.34;43.62;101922.69;5033195;28;64225;-66
2021/07/09 10:33:51;;;;;;;;;11.50;8.00;;;;;24.27;43.21;101931.03;5039966;28;46627;-65
2021/07/09 10:36:29;;;;;;;;;9.50;9.50;;;;;24.24;43.74;101930.38;5033349;28;68176;-71
2021/07/09 10:38:55;;;;;;;;;9.25;7.00;;;;;24.14;44.06;101927.47;5031197;28;45782;-62
2021/07/09 10:41:22;;;;;;;;;7.75;7.00;;;;;24.20;44.13;101924.41;5055720;28;45552;-62
2021/07/09 10:44:17;;;;;;;;;10.25;9.00;;;;;24.37;43.66;101919.81;5060312;28;45624;-61
2021/07/09 10:46:43;;;;;;;;;10.25;8.25;;;;;24.30;43.33;101919.38;5056250;28;45624;-62
2021/07/09 10:49:08;;;;;;;;;9.75;9.00;;;;;24.28;43.66;101921.25;5042151;28;45360;-62
2021/07/09 10:51:49;;;;;;;;;13.00;9.50;;;;;24.25;43.50;101926.78;5060192;28;45272;-62
2021/07/09 10:54:30;;;;;;;;;9.75;7.25;;;;;24.17;43.75;101919.28;5057375;28;46194;-61
2021/07/09 10:57:18;;;;;;;;;9.00;9.00;;;;;24.17;44.04;101927.25;5044156;28;45372;-62
2021/07/09 11:00:21;;;;;;;;;9.00;9.00;;;;;24.17;44.83;101923.75;5053930;28;45353;-62
2021/07/09 11:03:03;;;;;;;;;8.50;7.25;;;;;24.21;45.02;101927.91;5055471;28;45597;-61
2021/07/09 11:05:44;;;;;;;;;9.50;7.50;;;;;24.37;44.25;101910.03;5051549;28;45280;-63
2021/07/09 11:08:31;;;;;;;;;8.50;8.50;;;;;24.49;44.46;101908.38;5059425;28;45316;-63
2021/07/09 11:11:07;;;;;;;;;13.00;9.25;;;;;24.66;43.89;101909.88;5041302;28;45491;-63
2021/07/09 11:16:27;;;;;;;;;9.75;8.00;;;;;24.94;43.59;101900.84;5058555;28;45207;-63
2021/07/09 11:19:05;;;;;;;;;9.75;8.75;;;;;25.13;43.26;101894.19;5059990;28;45705;-64